Time;durP1;ratioP1;P1;durP2;ratioP2;P2;SDS_P1;SDS_P2;PMS_P1;PMS_P2;Temp;Humidity;BMP_temperature;BMP_pressure;BME280_temperature;BME280_humidity;BME280_pressure;Samples;Min_cycle;Max_cycle;Signal;HPM_P1;HPM_P2
2023/02/07 00:01:34;;;;;;;1.90;1.35;;;20.30;68.60;;;;;;5082192;28;20198;-62
2023/02/07 00:04:03;;;;;;;1.50;1.10;;;20.30;68.60;;;;;;5077087;28;20210;-62
2023/02/07 00:06:31;;;;;;;1.60;1.20;;;20.30;68.60;;;;;;5080145;28;20296;-66
2023/02/07 00:09:00;;;;;;;1.23;1.13;;;20.30;68.60;;;;;;5077357;28;20221;-61
2023/02/07 00:11:28;;;;;;;1.42;1.27;;;20.30;68.60;;;;;;5080473;28;20296;-61
2023/02/07 00:13:56;;;;;;;2.30;1.42;;;20.30;68.60;;;;;;5077083;28;20206;-67
2023/02/07 00:16:24;;;;;;;1.30;1.02;;;20.30;68.60;;;;;;5068127;28;20207;-63
2023/02/07 00:18:52;;;;;;;1.65;1.10;;;20.30;68.60;;;;;;5073588;28;20294;-62
2023/02/07 00:21:22;;;;;;;1.27;1.17;;;20.30;68.60;;;;;;5079455;28;20251;-65
2023/02/07 00:23:49;;;;;;;1.40;1.30;;;20.30;68.60;;;;;;5080949;28;20225;-62
2023/02/07 00:26:17;;;;;;;1.30;1.17;;;20.30;68.50;;;;;;5081188;28;20205;-62
2023/02/07 00:28:43;;;;;;;1.70;1.48;;;20.30;68.50;;;;;;5083082;28;20233;-62
2023/02/07 00:31:12;;;;;;;3.35;1.10;;;20.30;68.50;;;;;;5078284;28;20198;-68
2023/02/07 00:33:41;;;;;;;1.35;1.05;;;20.30;68.50;;;;;;5076458;28;20205;-62
2023/02/07 00:36:11;;;;;;;1.40;1.30;;;20.30;68.50;;;;;;5081383;28;20208;-65
2023/02/07 00:38:40;;;;;;;1.35;1.20;;;20.30;68.50;;;;;;5075851;28;20198;-62
2023/02/07 00:41:07;;;;;;;1.60;1.50;;;20.30;68.50;;;;;;5079137;28;20197;-63
2023/02/07 00:43:34;;;;;;;1.65;1.30;;;20.30;68.50;;;;;;5076391;28;20201;-62
2023/02/07 00:46:04;;;;;;;1.40;1.13;;;20.30;68.50;;;;;;5077732;28;20202;-62
2023/02/07 00:48:31;;;;;;;1.42;1.30;;;20.30;68.50;;;;;;5073309;28;20244;-61
2023/02/07 00:50:58;;;;;;;1.20;1.10;;;20.30;68.50;;;;;;5073491;28;20220;-63
2023/02/07 00:53:27;;;;;;;1.25;1.00;;;20.30;68.60;;;;;;5078695;28;20198;-62
2023/02/07 00:55:55;;;;;;;1.30;1.10;;;20.30;68.50;;;;;;5078101;28;20653;-62
2023/02/07 00:58:22;;;;;;;1.20;1.10;;;20.30;68.60;;;;;;5078876;28;20675;-62
2023/02/07 01:00:48;;;;;;;1.77;1.50;;;20.30;68.50;;;;;;5076913;28;20200;-64
2023/02/07 01:03:15;;;;;;;1.75;1.30;;;20.30;68.60;;;;;;5078825;28;20677;-62
2023/02/07 01:05:42;;;;;;;1.50;1.13;;;20.30;68.60;;;;;;5084209;28;20202;-62
2023/02/07 01:08:09;;;;;;;1.70;1.35;;;20.30;68.50;;;;;;5084148;28;20240;-63
2023/02/07 01:10:39;;;;;;;1.88;1.30;;;20.30;68.60;;;;;;5075353;28;20202;-62
2023/02/07 01:13:08;;;;;;;1.40;1.30;;;20.30;68.60;;;;;;5075287;28;20730;-61
2023/02/07 01:15:36;;;;;;;1.40;1.30;;;20.30;68.50;;;;;;5075257;28;20195;-61
2023/02/07 01:18:03;;;;;;;1.10;0.80;;;20.30;68.60;;;;;;5075250;28;20208;-64
2023/02/07 01:20:30;;;;;;;1.83;1.40;;;20.30;69.30;;;;;;5075459;28;20191;-63
2023/02/07 01:22:57;;;;;;;1.30;1.08;;;20.30;68.50;;;;;;5076039;28;20658;-63
2023/02/07 01:25:24;;;;;;;1.20;1.08;;;20.30;68.60;;;;;;5077778;28;20225;-66
2023/02/07 01:27:52;;;;;;;1.38;1.27;;;20.30;68.60;;;;;;5082429;28;20220;-62
2023/02/07 01:30:20;;;;;;;1.25;1.15;;;20.30;68.50;;;;;;5080169;28;20206;-61
2023/02/07 01:32:47;;;;;;;1.30;1.10;;;20.30;68.60;;;;;;5071345;28;20204;-63
2023/02/07 01:35:14;;;;;;;0.95;0.85;;;20.30;68.60;;;;;;5075079;28;20555;-64
2023/02/07 01:37:40;;;;;;;1.40;1.27;;;20.30;68.60;;;;;;5082658;28;20211;-60
2023/02/07 01:40:09;;;;;;;1.88;1.50;;;20.30;68.60;;;;;;5085909;28;20202;-60
2023/02/07 01:42:35;;;;;;;1.50;1.20;;;20.30;68.60;;;;;;5080073;28;20204;-62
2023/02/07 01:45:10;;;;;;;1.40;1.20;;;20.30;68.60;;;;;;5072753;28;20190;-62
2023/02/07 01:47:38;;;;;;;1.25;1.15;;;20.30;68.60;;;;;;5076448;28;20568;-62
2023/02/07 01:50:06;;;;;;;1.20;0.98;;;20.30;68.60;;;;;;5074790;28;20207;-64
2023/02/07 01:52:36;;;;;;;1.33;1.10;;;20.30;68.60;;;;;;5078648;28;20195;-62
2023/02/07 01:55:07;;;;;;;1.35;1.10;;;20.30;68.60;;;;;;5072710;28;20193;-62
2023/02/07 01:57:34;;;;;;;1.20;1.08;;;20.20;68.50;;;;;;5078623;28;20206;-65
2023/02/07 02:00:02;;;;;;;1.13;1.02;;;20.30;68.60;;;;;;5072477;28;20216;-61
2023/02/07 02:02:32;;;;;;;1.58;1.20;;;20.20;68.50;;;;;;5081880;28;20210;-62
2023/02/07 02:05:00;;;;;;;1.10;1.00;;;20.20;68.50;;;;;;5074939;28;20652;-59
2023/02/07 02:07:31;;;;;;;1.10;0.90;;;20.20;68.50;;;;;;5076320;28;20198;-62
2023/02/07 02:09:58;;;;;;;1.33;1.08;;;20.20;68.50;;;;;;5076296;28;20713;-62
2023/02/07 02:12:48;;;;;;;1.73;1.30;;;20.20;68.50;;;;;;5076252;28;20674;-61
2023/02/07 02:15:25;;;;;;;1.33;1.10;;;20.20;68.50;;;;;;5083969;28;20197;-62
2023/02/07 02:18:02;;;;;;;1.65;1.20;;;20.20;68.50;;;;;;5076431;28;20199;-61
2023/02/07 02:20:57;;;;;;;1.20;1.10;;;20.20;68.50;;;;;;5081148;28;20686;-63
2023/02/07 02:23:35;;;;;;;1.10;0.95;;;20.20;68.50;;;;;;5085253;28;20195;-61
2023/02/07 02:26:44;;;;;;;1.33;1.10;;;20.20;69.30;;;;;;5078151;28;20200;-62
2023/02/07 02:29:42;;;;;;;1.67;1.20;;;20.20;68.50;;;;;;5083817;28;20218;-62
2023/02/07 02:32:42;;;;;;;1.20;1.00;;;20.20;68.50;;;;;;5079403;28;20205;-62
2023/02/07 02:35:17;;;;;;;1.38;1.10;;;20.20;68.50;;;;;;5080310;28;20589;-61
2023/02/07 02:37:51;;;;;;;1.58;1.48;;;20.20;68.50;;;;;;5074878;28;20649;-65
2023/02/07 02:40:23;;;;;;;1.30;1.08;;;20.20;68.50;;;;;;5080169;28;20687;-65
2023/02/07 02:42:54;;;;;;;3.53;1.27;;;20.20;68.50;;;;;;5082329;28;20201;-62
2023/02/07 02:45:27;;;;;;;1.30;1.20;;;20.20;68.50;;;;;;5086725;28;20205;-61
2023/02/07 02:47:54;;;;;;;1.10;0.90;;;20.20;68.50;;;;;;5069691;28;20233;-61
2023/02/07 02:50:28;;;;;;;1.50;1.17;;;20.20;68.50;;;;;;5075085;28;20665;-68
2023/02/07 02:52:55;;;;;;;1.33;1.00;;;20.20;68.50;;;;;;5078331;28;20198;-61
2023/02/07 02:55:36;;;;;;;1.25;0.90;;;20.20;68.50;;;;;;5077948;28;20194;-62
2023/02/07 02:58:10;;;;;;;1.27;1.00;;;20.20;68.50;;;;;;5077906;28;20276;-62
2023/02/07 03:00:48;;;;;;;1.30;1.20;;;20.20;68.50;;;;;;5084569;28;20550;-61
2023/02/07 03:03:39;;;;;;;1.20;1.10;;;20.20;68.50;;;;;;5075713;28;20300;-63
2023/02/07 03:06:19;;;;;;;1.70;1.17;;;20.20;68.50;;;;;;5080387;28;20205;-62
2023/02/07 03:08:52;;;;;;;1.20;0.98;;;20.20;68.50;;;;;;5087455;28;20759;-64
2023/02/07 03:11:22;;;;;;;1.00;0.90;;;20.20;68.50;;;;;;5084474;28;21240;-61
2023/02/07 03:13:59;;;;;;;1.20;1.10;;;20.20;68.50;;;;;;5085573;28;20201;-64
2023/02/07 03:16:34;;;;;;;2.67;1.00;;;20.20;68.40;;;;;;5083589;28;20651;-62
2023/02/07 03:19:07;;;;;;;1.30;1.00;;;20.20;68.50;;;;;;5084774;28;20588;-66
2023/02/07 03:21:41;;;;;;;1.20;1.10;;;20.20;68.40;;;;;;5078931;28;20220;-61
2023/02/07 03:24:14;;;;;;;1.40;1.00;;;20.20;68.40;;;;;;5080936;28;20202;-63
2023/02/07 03:26:44;;;;;;;1.40;1.20;;;20.20;68.50;;;;;;5085736;28;21432;-61
2023/02/07 03:29:13;;;;;;;1.77;1.23;;;20.20;68.40;;;;;;5079595;28;20224;-61
2023/02/07 03:31:42;;;;;;;1.00;0.80;;;20.20;68.50;;;;;;5075881;28;20202;-61
2023/02/07 03:34:14;;;;;;;1.02;0.93;;;20.20;68.40;;;;;;5080304;28;20196;-62
2023/02/07 03:36:48;;;;;;;1.15;1.05;;;20.20;68.40;;;;;;5076793;28;20207;-63
2023/02/07 03:39:15;;;;;;;1.35;0.90;;;20.20;68.40;;;;;;5077497;28;20198;-63
2023/02/07 03:41:46;;;;;;;1.77;1.20;;;20.20;68.40;;;;;;5078800;28;20190;-62
2023/02/07 03:44:15;;;;;;;1.50;1.00;;;20.20;68.40;;;;;;5079139;28;20700;-62
2023/02/07 03:46:41;;;;;;;1.23;0.98;;;20.20;68.40;;;;;;5080809;28;20688;-62
2023/02/07 03:49:08;;;;;;;1.52;1.20;;;20.20;68.40;;;;;;5082291;28;20214;-65
2023/02/07 03:51:35;;;;;;;1.17;1.08;;;20.20;68.40;;;;;;5084513;28;20212;-60
2023/02/07 03:54:03;;;;;;;1.10;0.90;;;20.20;68.40;;;;;;5077550;28;20645;-62
2023/02/07 03:56:30;;;;;;;1.15;0.93;;;20.20;68.40;;;;;;5078860;28;20206;-67
2023/02/07 03:58:56;;;;;;;1.50;1.10;;;20.20;68.40;;;;;;5081944;28;20196;-63
2023/02/07 04:01:23;;;;;;;1.65;1.17;;;20.20;68.40;;;;;;5084664;28;20637;-63
2023/02/07 04:03:50;;;;;;;1.27;0.90;;;20.20;68.40;;;;;;5083291;28;20206;-62
2023/02/07 04:06:16;;;;;;;1.25;1.15;;;20.20;68.40;;;;;;5081629;28;20196;-65
2023/02/07 04:08:43;;;;;;;1.30;1.20;;;20.20;68.40;;;;;;5082585;28;20217;-62
2023/02/07 04:11:11;;;;;;;1.55;1.10;;;20.20;68.40;;;;;;5082498;28;20209;-61
2023/02/07 04:13:38;;;;;;;1.10;1.00;;;20.20;68.40;;;;;;5078678;28;20189;-62
2023/02/07 04:16:05;;;;;;;1.00;0.90;;;20.20;68.40;;;;;;5070759;28;20191;-62
2023/02/07 04:18:32;;;;;;;1.20;1.10;;;20.20;68.40;;;;;;5081984;28;20196;-62
2023/02/07 04:21:02;;;;;;;1.67;1.15;;;20.20;68.40;;;;;;5083741;28;20772;-62
2023/02/07 04:23:29;;;;;;;1.10;0.82;;;20.20;69.10;;;;;;5079866;28;20198;-61
2023/02/07 04:25:56;;;;;;;1.02;0.90;;;20.20;68.30;;;;;;5078521;28;20203;-62
2023/02/07 04:28:24;;;;;;;1.40;1.02;;;20.20;68.30;;;;;;5083587;28;20196;-62
2023/02/07 04:30:52;;;;;;;0.90;0.77;;;20.20;68.30;;;;;;5080087;28;20197;-62
2023/02/07 04:33:20;;;;;;;1.40;0.80;;;20.20;68.30;;;;;;5082228;28;20209;-61
2023/02/07 04:35:46;;;;;;;1.00;0.80;;;20.20;68.40;;;;;;5080553;28;20193;-61
2023/02/07 04:38:13;;;;;;;1.08;0.98;;;20.20;68.30;;;;;;5081075;28;20206;-61
2023/02/07 04:40:40;;;;;;;1.35;1.20;;;20.20;68.30;;;;;;5077078;28;20201;-61
2023/02/07 04:43:06;;;;;;;1.00;0.90;;;20.20;68.20;;;;;;5089442;28;20597;-62
2023/02/07 04:45:34;;;;;;;1.30;1.20;;;20.20;69.10;;;;;;5082226;28;20205;-62
2023/02/07 04:48:01;;;;;;;1.17;0.93;;;20.10;68.10;;;;;;5084543;28;20198;-66
2023/02/07 04:50:28;;;;;;;1.00;0.90;;;20.20;68.30;;;;;;5085570;28;20225;-61
2023/02/07 04:52:55;;;;;;;1.40;1.00;;;20.20;68.20;;;;;;5081731;28;20966;-65
2023/02/07 04:55:22;;;;;;;1.10;1.00;;;20.10;68.20;;;;;;5087394;28;20221;-66
2023/02/07 04:57:49;;;;;;;1.30;1.00;;;20.20;68.20;;;;;;5087308;28;20218;-64
2023/02/07 05:00:16;;;;;;;0.98;0.80;;;20.20;68.20;;;;;;5077601;28;20561;-61
2023/02/07 05:02:44;;;;;;;1.10;1.00;;;20.20;68.20;;;;;;5087447;28;20255;-63
2023/02/07 05:05:11;;;;;;;1.30;1.00;;;20.10;68.10;;;;;;5087143;28;20194;-64
2023/02/07 05:07:38;;;;;;;1.10;1.00;;;20.10;68.10;;;;;;5087795;28;20588;-61
2023/02/07 05:10:05;;;;;;;1.58;1.10;;;20.20;68.20;;;;;;5083908;28;20229;-61
2023/02/07 05:12:32;;;;;;;1.40;1.15;;;20.10;68.10;;;;;;5086279;28;20232;-61
2023/02/07 05:14:59;;;;;;;1.00;0.82;;;20.10;68.10;;;;;;5088792;28;20205;-61
2023/02/07 05:17:25;;;;;;;1.13;0.90;;;20.10;68.10;;;;;;5078050;28;20206;-63
2023/02/07 05:19:54;;;;;;;1.15;0.88;;;20.10;68.10;;;;;;5081489;28;20681;-63
2023/02/07 05:22:20;;;;;;;1.02;0.93;;;20.10;68.10;;;;;;5082235;28;20204;-62
2023/02/07 05:24:47;;;;;;;1.38;1.05;;;20.10;68.10;;;;;;5086270;28;20203;-64
2023/02/07 05:27:14;;;;;;;1.10;0.90;;;20.10;68.10;;;;;;5083680;28;20203;-65
2023/02/07 05:29:40;;;;;;;1.08;0.98;;;20.10;68.10;;;;;;5078542;28;20221;-62
2023/02/07 05:34:51;;;;;;;0.80;0.70;;;20.10;68.00;;;;;;5081928;28;20258;-64
2023/02/07 05:37:19;;;;;;;1.70;1.35;;;20.10;68.00;;;;;;5089375;28;20201;-62
2023/02/07 05:39:46;;;;;;;1.13;1.00;;;20.10;68.00;;;;;;5084466;28;20215;-62
2023/02/07 05:42:13;;;;;;;1.30;1.00;;;20.10;68.00;;;;;;5087229;28;20673;-62
2023/02/07 05:44:39;;;;;;;1.05;0.90;;;20.10;68.00;;;;;;5078991;28;20202;-64
2023/02/07 05:47:06;;;;;;;1.23;1.10;;;20.10;68.00;;;;;;5085753;28;20635;-61
2023/02/07 05:49:33;;;;;;;1.02;0.93;;;20.10;68.00;;;;;;5080985;28;20224;-61
2023/02/07 05:51:59;;;;;;;1.08;0.98;;;20.10;68.00;;;;;;5087860;28;20564;-64
2023/02/07 05:54:27;;;;;;;1.38;1.02;;;20.10;67.90;;;;;;5076036;28;20276;-62
2023/02/07 05:56:54;;;;;;;1.45;1.00;;;20.10;67.90;;;;;;5079698;28;20201;-61
2023/02/07 05:59:21;;;;;;;1.20;1.00;;;20.10;67.90;;;;;;5081440;28;20672;-63
2023/02/07 06:01:48;;;;;;;1.00;0.90;;;20.10;67.90;;;;;;5081772;28;20217;-62
2023/02/07 06:04:15;;;;;;;1.30;1.20;;;20.10;67.90;;;;;;5081928;28;20202;-62
2023/02/07 06:06:41;;;;;;;1.02;0.93;;;20.10;67.90;;;;;;5084860;28;20731;-64
2023/02/07 06:09:08;;;;;;;1.58;1.30;;;20.10;67.90;;;;;;5086568;28;20205;-62
2023/02/07 06:11:36;;;;;;;1.10;0.93;;;20.10;67.90;;;;;;5085375;28;20225;-61
2023/02/07 06:14:03;;;;;;;1.00;0.90;;;20.10;67.90;;;;;;5081428;28;20201;-61
2023/02/07 06:16:30;;;;;;;1.27;1.02;;;20.10;67.90;;;;;;5082216;28;20193;-63
2023/02/07 06:18:56;;;;;;;1.30;1.13;;;20.10;67.90;;;;;;5082441;28;20197;-62
2023/02/07 06:21:23;;;;;;;1.05;0.95;;;20.10;67.90;;;;;;5083456;28;20204;-61
2023/02/07 06:23:50;;;;;;;1.40;1.08;;;20.10;67.90;;;;;;5083519;28;20205;-64
2023/02/07 06:26:17;;;;;;;1.15;1.02;;;20.10;67.90;;;;;;5084174;28;20285;-62
2023/02/07 06:28:45;;;;;;;1.45;0.90;;;20.10;67.90;;;;;;5086352;28;20198;-63
2023/02/07 06:31:12;;;;;;;1.20;1.10;;;20.10;67.90;;;;;;5081031;28;20233;-63
2023/02/07 06:33:39;;;;;;;1.10;0.90;;;20.10;67.90;;;;;;5083015;28;20202;-62
2023/02/07 06:36:06;;;;;;;1.10;0.93;;;20.10;67.90;;;;;;5083232;28;20198;-61
2023/02/07 06:38:33;;;;;;;1.10;0.90;;;20.10;67.90;;;;;;5072673;28;20186;-61
2023/02/07 06:40:59;;;;;;;0.90;0.70;;;20.10;67.80;;;;;;5077311;28;20410;-61
2023/02/07 06:43:26;;;;;;;1.20;1.00;;;20.10;67.90;;;;;;5082097;28;20202;-61
2023/02/07 06:45:54;;;;;;;1.92;1.77;;;20.10;67.90;;;;;;5081441;28;20194;-61
2023/02/07 06:48:21;;;;;;;1.00;0.80;;;20.00;67.80;;;;;;5072944;28;20657;-61
2023/02/07 06:50:50;;;;;;;1.38;0.95;;;20.00;67.80;;;;;;5083364;28;20213;-64
2023/02/07 06:53:17;;;;;;;1.13;1.00;;;20.00;67.80;;;;;;5082596;28;20198;-63
2023/02/07 06:55:44;;;;;;;1.10;1.00;;;20.00;67.80;;;;;;5081092;28;20188;-60
2023/02/07 06:58:10;;;;;;;0.90;0.80;;;20.00;67.80;;;;;;5081186;28;20197;-62
2023/02/07 07:00:37;;;;;;;1.00;0.90;;;20.10;67.90;;;;;;5081586;28;20213;-61
2023/02/07 07:03:05;;;;;;;1.10;1.00;;;20.10;67.90;;;;;;5073251;28;20535;-63
2023/02/07 07:05:33;;;;;;;1.20;1.00;;;20.10;67.90;;;;;;5074647;28;20200;-63
2023/02/07 07:07:59;;;;;;;1.20;1.02;;;20.10;67.80;;;;;;5085100;28;20240;-62
2023/02/07 07:10:26;;;;;;;1.15;0.80;;;20.10;67.80;;;;;;5085627;28;20611;-63
2023/02/07 07:12:53;;;;;;;1.00;0.90;;;20.10;67.80;;;;;;5084075;28;20209;-64
2023/02/07 07:15:19;;;;;;;1.00;0.85;;;20.10;67.80;;;;;;5081361;28;20196;-61
2023/02/07 07:17:46;;;;;;;1.10;0.90;;;20.10;67.80;;;;;;5079334;28;20198;-65
2023/02/07 07:20:14;;;;;;;1.05;0.75;;;20.10;67.70;;;;;;5085180;28;20201;-61
2023/02/07 07:22:41;;;;;;;1.40;1.00;;;20.10;67.70;;;;;;5085717;28;20200;-63
2023/02/07 07:25:08;;;;;;;1.00;0.90;;;20.10;67.70;;;;;;5086922;28;20206;-61
2023/02/07 07:27:35;;;;;;;1.02;0.90;;;20.10;67.70;;;;;;5082277;28;20210;-61
2023/02/07 07:30:02;;;;;;;1.52;1.20;;;20.10;67.70;;;;;;5084515;28;20222;-62
2023/02/07 07:32:28;;;;;;;1.33;1.00;;;20.10;67.70;;;;;;5079326;28;20201;-63
2023/02/07 07:34:55;;;;;;;1.00;0.90;;;20.10;67.70;;;;;;5081879;28;20204;-65
2023/02/07 07:37:23;;;;;;;1.10;1.00;;;20.10;67.70;;;;;;5085466;28;20664;-62
2023/02/07 07:39:50;;;;;;;1.85;1.20;;;20.10;67.70;;;;;;5081982;28;20217;-62
2023/02/07 07:42:16;;;;;;;1.10;1.00;;;20.10;67.70;;;;;;5084724;28;20186;-63
2023/02/07 07:44:43;;;;;;;1.05;0.93;;;20.10;67.70;;;;;;5084076;28;20193;-62
2023/02/07 07:47:10;;;;;;;1.08;0.90;;;20.10;67.70;;;;;;5075230;28;20202;-64
2023/02/07 07:49:36;;;;;;;1.00;0.85;;;20.10;67.70;;;;;;5086307;28;20196;-62
2023/02/07 07:52:03;;;;;;;1.02;0.93;;;20.10;67.70;;;;;;5079618;28;20200;-62
2023/02/07 07:54:31;;;;;;;1.08;0.98;;;20.10;67.70;;;;;;5080636;28;20242;-66
2023/02/07 07:56:58;;;;;;;1.25;0.95;;;20.10;67.70;;;;;;5080996;28;20193;-62
2023/02/07 07:59:25;;;;;;;0.95;0.85;;;20.10;67.70;;;;;;5079614;28;20222;-62
2023/02/07 08:01:52;;;;;;;1.00;0.90;;;20.10;67.70;;;;;;5080827;28;20192;-61
2023/02/07 08:04:19;;;;;;;1.00;0.80;;;20.10;67.70;;;;;;5077910;28;20684;-62
2023/02/07 08:06:45;;;;;;;1.10;1.00;;;20.10;67.70;;;;;;5082536;28;20202;-62
2023/02/07 08:09:12;;;;;;;0.90;0.80;;;20.10;67.70;;;;;;5079456;28;20213;-64
2023/02/07 08:11:40;;;;;;;1.10;0.90;;;20.10;67.60;;;;;;5075818;28;20597;-63
2023/02/07 08:14:07;;;;;;;0.98;0.70;;;20.10;67.60;;;;;;5078994;28;20197;-63
2023/02/07 08:16:33;;;;;;;1.17;0.90;;;20.10;67.60;;;;;;5078114;28;20198;-62
2023/02/07 08:19:00;;;;;;;1.10;1.00;;;20.10;67.60;;;;;;5078643;28;20203;-61
2023/02/07 08:21:27;;;;;;;1.10;0.90;;;20.10;67.60;;;;;;5074292;28;20202;-62
2023/02/07 08:23:54;;;;;;;1.20;1.10;;;20.10;67.60;;;;;;5080679;28;20561;-62
2023/02/07 08:26:21;;;;;;;1.58;0.95;;;20.10;67.60;;;;;;5079578;28;20197;-61
2023/02/07 08:28:51;;;;;;;1.10;0.98;;;20.10;67.60;;;;;;5079789;28;20196;-62
2023/02/07 08:31:18;;;;;;;1.35;1.08;;;20.10;67.60;;;;;;5084535;28;20313;-64
2023/02/07 08:33:45;;;;;;;4.32;1.17;;;20.10;67.60;;;;;;5081189;28;20204;-65
2023/02/07 08:36:12;;;;;;;2.65;1.13;;;20.10;68.20;;;;;;5084084;28;20201;-63
2023/02/07 08:38:38;;;;;;;7.25;0.90;;;20.10;67.80;;;;;;5075293;28;20205;-63
2023/02/07 08:41:05;;;;;;;4.05;1.20;;;20.10;67.80;;;;;;5078717;28;20684;-65
2023/02/07 08:43:32;;;;;;;2.08;1.00;;;20.10;67.80;;;;;;5076078;28;20209;-66
2023/02/07 08:46:00;;;;;;;2.55;1.10;;;20.10;67.80;;;;;;5074937;28;21989;-69
2023/02/07 08:48:28;;;;;;;1.80;1.33;;;20.20;68.10;;;;;;5079145;28;20205;-67
2023/02/07 08:50:55;;;;;;;2.25;1.00;;;20.10;68.20;;;;;;5072927;28;20217;-65
2023/02/07 08:53:21;;;;;;;8.57;1.10;;;20.10;68.30;;;;;;5080391;28;20204;-66
2023/02/07 08:55:48;;;;;;;1.00;0.90;;;20.10;68.40;;;;;;5075977;28;20196;-66
2023/02/07 08:58:15;;;;;;;2.35;0.98;;;20.10;68.70;;;;;;5077428;28;20198;-67
2023/02/07 09:00:42;;;;;;;1.05;0.95;;;20.10;68.70;;;;;;5075025;28;20193;-67
2023/02/07 09:03:11;;;;;;;1.70;1.33;;;20.10;68.60;;;;;;5069108;28;20703;-72
2023/02/07 09:05:37;;;;;;;1.20;1.00;;;20.10;68.40;;;;;;5076375;28;20217;-72
2023/02/07 09:08:05;;;;;;;1.58;1.00;;;20.10;68.40;;;;;;5077695;28;20206;-66
2023/02/07 09:10:31;;;;;;;1.10;0.93;;;20.20;68.50;;;;;;5088682;28;20223;-70
2023/02/07 09:12:58;;;;;;;1.35;1.25;;;20.20;68.50;;;;;;5077206;28;20214;-68
2023/02/07 09:15:26;;;;;;;1.10;1.00;;;20.20;68.50;;;;;;5072372;28;20217;-67
2023/02/07 09:17:52;;;;;;;1.20;0.90;;;20.20;68.40;;;;;;5086191;28;20206;-66
2023/02/07 09:20:21;;;;;;;1.10;0.95;;;20.20;68.40;;;;;;5087870;28;20201;-66
2023/02/07 09:25:32;;;;;;;1.08;0.90;;;20.20;68.40;;;;;;5081002;28;20295;-67
2023/02/07 09:27:58;;;;;;;1.95;1.00;;;20.20;68.40;;;;;;5079457;28;20198;-66
2023/02/07 09:30:25;;;;;;;1.52;1.10;;;20.20;68.30;;;;;;5083553;28;20617;-65
2023/02/07 09:32:52;;;;;;;1.20;1.10;;;20.20;68.30;;;;;;5079650;28;20221;-67
2023/02/07 09:35:20;;;;;;;1.45;1.00;;;20.20;68.20;;;;;;5089087;28;20194;-66
2023/02/07 09:37:47;;;;;;;1.27;1.00;;;20.20;68.20;;;;;;5090586;28;20572;-69
2023/02/07 10:30:26;;;;;;;1.30;1.08;;;20.00;67.30;;;;;;5080490;27;20632;-69
2023/02/07 10:32:55;;;;;;;4.15;1.10;;;20.00;67.80;;;;;;5055284;28;20673;-67
2023/02/07 10:35:30;;;;;;;2.67;1.30;;;19.90;67.90;;;;;;5058096;28;20203;-67
2023/02/07 10:38:01;;;;;;;2.30;1.25;;;19.90;67.70;;;;;;5062440;28;20199;-70
2023/02/07 10:40:33;;;;;;;1.20;1.10;;;20.00;67.90;;;;;;5061325;28;20213;-72
2023/02/07 10:43:03;;;;;;;1.52;1.42;;;20.00;67.90;;;;;;5062424;28;20198;-74
2023/02/07 10:45:31;;;;;;;1.70;1.35;;;20.00;67.90;;;;;;5063294;28;20206;-67
2023/02/07 10:47:58;;;;;;;1.30;1.08;;;20.00;68.00;;;;;;5063051;28;20219;-69
2023/02/07 10:50:26;;;;;;;1.30;1.20;;;20.00;68.10;;;;;;5059381;28;20197;-66
2023/02/07 10:52:54;;;;;;;1.13;1.00;;;20.10;68.30;;;;;;5056229;28;20203;-69
2023/02/07 10:55:36;;;;;;;1.10;0.98;;;20.10;68.30;;;;;;5062857;28;20199;-67
2023/02/07 10:58:03;;;;;;;1.23;1.13;;;20.10;68.30;;;;;;5062240;28;20206;-66
2023/02/07 11:00:33;;;;;;;1.45;1.20;;;20.20;68.50;;;;;;5061327;28;20195;-66
2023/02/07 11:03:03;;;;;;;1.20;1.00;;;20.20;68.50;;;;;;5060847;28;20204;-65
2023/02/07 11:05:52;;;;;;;0.95;0.75;;;20.20;68.50;;;;;;5059914;28;20209;-65
2023/02/07 11:08:22;;;;;;;1.20;1.00;;;20.30;68.70;;;;;;5062309;28;20226;-66
2023/02/07 11:10:51;;;;;;;1.20;1.10;;;20.30;68.70;;;;;;5062877;28;20195;-66
2023/02/07 11:13:20;;;;;;;1.00;0.85;;;20.30;68.70;;;;;;5074225;28;20201;-66
2023/02/07 11:15:51;;;;;;;1.67;1.20;;;20.40;68.90;;;;;;5071344;28;20203;-64
2023/02/07 11:18:36;;;;;;;1.50;1.30;;;20.40;68.90;;;;;;5060493;28;20202;-69
2023/02/07 11:21:05;;;;;;;2.10;1.23;;;20.40;68.90;;;;;;5062048;28;20209;-65
2023/02/07 11:23:32;;;;;;;1.15;0.90;;;20.40;68.90;;;;;;5038906;28;21016;-65
2023/02/07 11:25:59;;;;;;;1.40;1.10;;;20.40;69.00;;;;;;5046426;28;20191;-66
2023/02/07 11:28:29;;;;;;;1.23;0.90;;;20.40;69.00;;;;;;5044092;28;20223;-67
2023/02/07 11:31:01;;;;;;;1.30;1.20;;;20.40;69.00;;;;;;5030013;28;20196;-67
2023/02/07 11:33:31;;;;;;;1.02;0.80;;;20.50;69.10;;;;;;5028855;28;20549;-69
2023/02/07 11:36:09;;;;;;;2.08;1.13;;;20.50;69.10;;;;;;5032799;28;20230;-70
2023/02/07 11:38:39;;;;;;;1.27;0.90;;;20.50;69.10;;;;;;5035140;28;20202;-67
2023/02/07 11:41:06;;;;;;;1.20;1.00;;;20.50;69.10;;;;;;5035905;28;20719;-68
2023/02/07 11:43:34;;;;;;;1.38;1.00;;;20.50;69.10;;;;;;5040517;28;20295;-67
2023/02/07 11:46:09;;;;;;;1.00;0.80;;;20.50;69.10;;;;;;5027678;28;20203;-66
2023/02/07 11:48:39;;;;;;;1.30;1.02;;;20.50;69.10;;;;;;5036746;28;20223;-66
2023/02/07 11:51:09;;;;;;;3.05;0.95;;;20.50;69.10;;;;;;5039754;28;20465;-70
2023/02/07 11:53:39;;;;;;;4.60;1.00;;;20.50;69.20;;;;;;5025592;28;20195;-68
2023/02/07 11:56:17;;;;;;;2.03;1.10;;;20.50;69.30;;;;;;5030555;28;20199;-70
2023/02/07 11:58:48;;;;;;;1.65;1.20;;;20.40;69.60;;;;;;5028242;28;20974;-68
2023/02/07 12:01:18;;;;;;;1.20;1.00;;;20.50;69.80;;;;;;5029430;28;20204;-73
2023/02/07 12:03:51;;;;;;;1.10;1.00;;;20.50;70.10;;;;;;5029793;28;20201;-73
2023/02/07 12:06:21;;;;;;;2.17;1.05;;;20.40;70.10;;;;;;5033612;28;20259;-68
2023/02/07 12:08:51;;;;;;;2.08;1.30;;;20.40;70.20;;;;;;5028529;28;20219;-64
2023/02/07 12:11:22;;;;;;;3.72;1.20;;;20.40;70.20;;;;;;5028480;28;20192;-67
2023/02/07 12:13:55;;;;;;;2.93;1.23;;;20.40;70.20;;;;;;5029978;28;20567;-66
2023/02/07 12:16:26;;;;;;;1.20;1.10;;;20.40;70.20;;;;;;5026579;28;20827;-68
2023/02/07 12:18:57;;;;;;;2.38;1.40;;;20.40;70.20;;;;;;5030315;28;20196;-65
2023/02/07 12:21:28;;;;;;;1.38;0.95;;;20.40;70.20;;;;;;5035823;28;20219;-71
2023/02/07 12:23:59;;;;;;;1.50;1.17;;;20.40;70.20;;;;;;5025432;28;20211;-70
2023/02/07 12:26:29;;;;;;;3.67;1.02;;;20.50;70.40;;;;;;5031566;28;20273;-70
2023/02/07 12:29:22;;;;;;;1.20;1.10;;;20.40;70.30;;;;;;5029097;28;20220;-70
2023/02/07 12:31:59;;;;;;;1.52;1.15;;;20.40;70.40;;;;;;5027692;28;20203;-70
2023/02/07 12:34:31;;;;;;;1.10;0.90;;;20.50;70.60;;;;;;5030208;28;20207;-71
2023/02/07 12:37:03;;;;;;;1.33;0.95;;;20.50;70.70;;;;;;5025552;28;20200;-73
2023/02/07 12:39:36;;;;;;;1.20;1.10;;;20.50;70.70;;;;;;5019569;28;20200;-67
2023/02/07 12:42:20;;;;;;;1.93;0.90;;;20.60;71.00;;;;;;5026262;28;20203;-69
2023/02/07 12:44:53;;;;;;;1.20;0.77;;;20.60;71.20;;;;;;5031215;28;20466;-71
2023/02/07 12:47:28;;;;;;;1.77;1.00;;;20.60;71.10;;;;;;5029310;28;20200;-69
2023/02/07 12:50:11;;;;;;;1.60;1.20;;;20.60;71.10;;;;;;5028633;28;20721;-69
2023/02/07 12:52:46;;;;;;;3.00;1.60;;;20.60;71.20;;;;;;5028556;28;20603;-69
2023/02/07 12:55:24;;;;;;;1.52;0.90;;;20.60;71.10;;;;;;5026656;28;20455;-70
2023/02/07 12:58:00;;;;;;;1.20;1.10;;;20.60;71.10;;;;;;5029949;28;20200;-66
2023/02/07 13:00:33;;;;;;;2.28;1.10;;;20.60;71.00;;;;;;5030868;28;20203;-67
2023/02/07 13:03:15;;;;;;;1.13;1.00;;;20.60;71.00;;;;;;5023525;28;20193;-66
2023/02/07 13:06:01;;;;;;;1.40;1.10;;;20.60;71.80;;;;;;5023027;28;20221;-65
2023/02/07 13:08:40;;;;;;;1.10;0.80;;;20.60;71.00;;;;;;5027578;28;20456;-67
2023/02/07 13:11:16;;;;;;;1.35;1.05;;;20.70;72.00;;;;;;5033851;28;20207;-66
2023/02/07 13:13:54;;;;;;;1.85;0.90;;;20.70;71.20;;;;;;5030524;28;20195;-63
2023/02/07 13:16:27;;;;;;;3.65;1.10;;;20.70;71.10;;;;;;5030185;28;20579;-68
2023/02/07 13:19:00;;;;;;;1.45;1.08;;;20.70;71.10;;;;;;5029608;28;20212;-69
2023/02/07 13:21:35;;;;;;;1.27;1.10;;;20.70;71.10;;;;;;5042906;28;20220;-68
2023/02/07 13:24:04;;;;;;;1.25;1.00;;;20.70;71.10;;;;;;5032720;28;20196;-68
2023/02/07 13:26:34;;;;;;;1.65;1.00;;;20.70;71.10;;;;;;5035128;28;20196;-70
2023/02/07 13:29:02;;;;;;;1.00;0.80;;;20.70;71.10;;;;;;5042830;28;20232;-66
2023/02/07 13:31:37;;;;;;;1.20;1.10;;;20.70;71.10;;;;;;5035416;28;20219;-69
2023/02/07 13:34:14;;;;;;;1.57;1.00;;;20.70;71.10;;;;;;5050498;28;20261;-70
2023/02/07 13:36:43;;;;;;;3.50;0.88;;;20.70;71.10;;;;;;5035623;28;21014;-70
2023/02/07 13:39:22;;;;;;;1.38;1.08;;;20.70;71.10;;;;;;5035037;28;20228;-72
2023/02/07 13:41:58;;;;;;;1.65;1.27;;;20.70;71.10;;;;;;5029240;28;20666;-66
2023/02/07 13:44:34;;;;;;;1.15;0.80;;;20.70;71.10;;;;;;5047468;28;20479;-65
2023/02/07 13:47:30;;;;;;;1.00;0.83;;;20.70;71.10;;;;;;5034092;28;20203;-66
2023/02/07 13:50:03;;;;;;;1.13;0.90;;;20.70;71.10;;;;;;5026486;28;20488;-63
2023/02/07 13:52:34;;;;;;;1.52;0.80;;;20.70;71.10;;;;;;5033071;28;20541;-63
2023/02/07 13:55:14;;;;;;;1.33;0.90;;;20.70;71.10;;;;;;5032931;28;20206;-67
2023/02/07 14:00:56;;;;;;;1.00;0.80;;;20.70;71.10;;;;;;4989242;28;22111;-64